sensor_id;sensor_type;location;lat;lon;timestamp;pressure;altitude;pressure_sealevel;temperature;humidity
55442;BME280;41313;58.740;50.174;2022-09-02T00:01:50;99210.84;;;11.14;67.64
55442;BME280;41313;58.740;50.174;2022-09-02T00:06:53;99210.56;;;10.93;68.08
55442;BME280;41313;58.740;50.174;2022-09-02T00:11:55;99208.19;;;10.78;68.04
55442;BME280;41313;58.740;50.174;2022-09-02T00:16:57;99209.13;;;10.89;67.41
55442;BME280;41313;58.740;50.174;2022-09-02T00:22:01;99204.06;;;10.73;67.47
55442;BME280;41313;58.740;50.174;2022-09-02T00:27:03;99200.94;;;10.68;67.54
55442;BME280;41313;58.740;50.174;2022-09-02T00:32:05;99197.00;;;10.61;67.56
55442;BME280;41313;58.740;50.174;2022-09-02T00:37:06;99197.22;;;10.58;67.60
55442;BME280;41313;58.740;50.174;2022-09-02T00:42:08;99192.81;;;10.46;67.85
55442;BME280;41313;58.740;50.174;2022-09-02T00:47:10;99185.13;;;10.43;67.82
55442;BME280;41313;58.740;50.174;2022-09-02T00:52:18;99180.44;;;10.35;67.82
55442;BME280;41313;58.740;50.174;2022-09-02T00:57:24;99167.50;;;10.45;67.56
55442;BME280;41313;58.740;50.174;2022-09-02T01:02:28;99158.25;;;10.52;67.91
55442;BME280;41313;58.740;50.174;2022-09-02T01:07:33;99153.22;;;10.36;68.60
55442;BME280;41313;58.740;50.174;2022-09-02T01:12:37;99154.38;;;10.45;68.46
55442;BME280;41313;58.740;50.174;2022-09-02T01:17:43;99152.13;;;10.64;67.91
55442;BME280;41313;58.740;50.174;2022-09-02T01:22:46;99148.88;;;10.73;67.68
55442;BME280;41313;58.740;50.174;2022-09-02T01:27:48;99145.84;;;10.67;68.20
55442;BME280;41313;58.740;50.174;2022-09-02T01:32:50;99129.84;;;10.70;68.24
55442;BME280;41313;58.740;50.174;2022-09-02T01:37:57;99118.06;;;10.76;67.88
55442;BME280;41313;58.740;50.174;2022-09-02T01:43:04;99113.00;;;10.85;67.96
55442;BME280;41313;58.740;50.174;2022-09-02T01:48:08;99109.94;;;10.91;67.59
55442;BME280;41313;58.740;50.174;2022-09-02T01:53:10;99093.78;;;10.85;67.91
55442;BME280;41313;58.740;50.174;2022-09-02T01:58:12;99084.84;;;10.87;67.27
55442;BME280;41313;58.740;50.174;2022-09-02T02:03:14;99091.16;;;10.85;67.08
55442;BME280;41313;58.740;50.174;2022-09-02T02:08:16;99094.56;;;11.11;66.36
55442;BME280;41313;58.740;50.174;2022-09-02T02:13:20;99094.22;;;11.15;66.31
55442;BME280;41313;58.740;50.174;2022-09-02T02:18:22;99096.97;;;11.14;66.47
55442;BME280;41313;58.740;50.174;2022-09-02T02:23:23;99097.38;;;10.84;67.54
55442;BME280;41313;58.740;50.174;2022-09-02T02:28:25;99105.56;;;10.92;67.48
55442;BME280;41313;58.740;50.174;2022-09-02T02:33:27;99098.81;;;11.01;67.33
55442;BME280;41313;58.740;50.174;2022-09-02T02:38:33;99091.31;;;11.07;67.19
55442;BME280;41313;58.740;50.174;2022-09-02T02:43:35;99088.78;;;11.06;67.29
55442;BME280;41313;58.740;50.174;2022-09-02T02:48:38;99099.03;;;11.22;67.08
55442;BME280;41313;58.740;50.174;2022-09-02T02:53:40;99089.34;;;11.46;66.61
55442;BME280;41313;58.740;50.174;2022-09-02T02:58:42;99084.25;;;11.56;66.95
55442;BME280;41313;58.740;50.174;2022-09-02T03:03:44;99074.94;;;11.98;66.13
55442;BME280;41313;58.740;50.174;2022-09-02T03:08:47;99074.63;;;12.14;66.64
55442;BME280;41313;58.740;50.174;2022-09-02T03:13:51;99069.59;;;12.22;66.31
55442;BME280;41313;58.740;50.174;2022-09-02T03:18:53;99074.31;;;12.41;66.33
55442;BME280;41313;58.740;50.174;2022-09-02T03:23:55;99067.69;;;12.69;66.05
55442;BME280;41313;58.740;50.174;2022-09-02T03:28:57;99070.66;;;12.87;65.43
55442;BME280;41313;58.740;50.174;2022-09-02T03:34:00;99068.03;;;12.87;65.54
55442;BME280;41313;58.740;50.174;2022-09-02T03:39:03;99068.50;;;12.92;65.35
55442;BME280;41313;58.740;50.174;2022-09-02T03:44:06;99067.53;;;13.05;65.32
55442;BME280;41313;58.740;50.174;2022-09-02T03:49:08;99063.06;;;13.16;65.13
55442;BME280;41313;58.740;50.174;2022-09-02T03:54:10;99050.97;;;13.25;64.61
55442;BME280;41313;58.740;50.174;2022-09-02T03:59:14;99050.09;;;13.36;65.34
55442;BME280;41313;58.740;50.174;2022-09-02T04:04:18;99056.50;;;13.54;65.22
55442;BME280;41313;58.740;50.174;2022-09-02T04:09:23;99044.50;;;13.71;64.73
55442;BME280;41313;58.740;50.174;2022-09-02T04:14:25;99042.78;;;13.81;64.53
55442;BME280;41313;58.740;50.174;2022-09-02T04:19:27;99049.41;;;13.97;64.12
55442;BME280;41313;58.740;50.174;2022-09-02T04:24:29;99048.09;;;14.12;64.31
55442;BME280;41313;58.740;50.174;2022-09-02T04:29:31;99042.25;;;14.08;64.46
55442;BME280;41313;58.740;50.174;2022-09-02T04:34:34;99044.03;;;13.98;64.23
55442;BME280;41313;58.740;50.174;2022-09-02T04:39:36;99036.53;;;13.82;64.60
55442;BME280;41313;58.740;50.174;2022-09-02T04:44:38;99032.75;;;13.75;64.65
55442;BME280;41313;58.740;50.174;2022-09-02T04:49:40;99034.72;;;13.83;64.47
55442;BME280;41313;58.740;50.174;2022-09-02T04:54:44;99026.38;;;13.99;64.87
55442;BME280;41313;58.740;50.174;2022-09-02T04:59:45;99028.38;;;14.47;63.51
55442;BME280;41313;58.740;50.174;2022-09-02T05:04:48;99031.34;;;14.94;62.93
55442;BME280;41313;58.740;50.174;2022-09-02T05:09:58;99035.66;;;14.95;62.45
55442;BME280;41313;58.740;50.174;2022-09-02T05:15:04;99032.06;;;15.06;62.04
55442;BME280;41313;58.740;50.174;2022-09-02T05:20:09;99043.19;;;15.09;60.97
55442;BME280;41313;58.740;50.174;2022-09-02T05:25:12;99038.34;;;15.34;61.11
55442;BME280;41313;58.740;50.174;2022-09-02T05:30:14;99037.94;;;15.48;59.90
55442;BME280;41313;58.740;50.174;2022-09-02T05:35:16;99026.38;;;15.59;60.00
55442;BME280;41313;58.740;50.174;2022-09-02T05:40:18;99042.09;;;15.99;58.06
55442;BME280;41313;58.740;50.174;2022-09-02T05:45:21;99056.75;;;16.40;56.40
55442;BME280;41313;58.740;50.174;2022-09-02T05:50:24;99069.59;;;16.45;54.10
55442;BME280;41313;58.740;50.174;2022-09-02T05:55:25;99079.03;;;16.48;51.56
55442;BME280;41313;58.740;50.174;2022-09-02T06:00:27;99079.81;;;16.68;51.54
55442;BME280;41313;58.740;50.174;2022-09-02T06:05:34;99085.88;;;16.60;50.68
55442;BME280;41313;58.740;50.174;2022-09-02T06:10:48;99106.91;;;16.61;51.22
55442;BME280;41313;58.740;50.174;2022-09-02T06:15:54;99105.75;;;16.83;49.42
55442;BME280;41313;58.740;50.174;2022-09-02T06:21:03;99111.69;;;16.95;47.05
55442;BME280;41313;58.740;50.174;2022-09-02T06:26:10;99109.13;;;17.03;46.47
55442;BME280;41313;58.740;50.174;2022-09-02T06:31:18;99100.88;;;17.06;46.45
55442;BME280;41313;58.740;50.174;2022-09-02T06:36:23;99112.97;;;16.91;47.73
55442;BME280;41313;58.740;50.174;2022-09-02T06:41:29;99109.13;;;16.76;46.82
55442;BME280;41313;58.740;50.174;2022-09-02T06:46:36;99128.59;;;16.47;46.34
55442;BME280;41313;58.740;50.174;2022-09-02T06:51:45;99127.63;;;16.48;47.79
55442;BME280;41313;58.740;50.174;2022-09-02T06:56:48;99130.44;;;16.37;48.75
55442;BME280;41313;58.740;50.174;2022-09-02T07:01:52;99138.72;;;16.24;49.05
55442;BME280;41313;58.740;50.174;2022-09-02T07:06:57;99135.38;;;16.12;48.96
55442;BME280;41313;58.740;50.174;2022-09-02T07:12:03;99133.59;;;16.03;49.34
55442;BME280;41313;58.740;50.174;2022-09-02T07:17:08;99135.38;;;16.12;49.57
55442;BME280;41313;58.740;50.174;2022-09-02T07:22:11;99136.63;;;16.08;50.13
55442;BME280;41313;58.740;50.174;2022-09-02T07:27:16;99129.91;;;16.24;50.33
55442;BME280;41313;58.740;50.174;2022-09-02T07:32:22;99137.00;;;16.33;50.54
55442;BME280;41313;58.740;50.174;2022-09-02T07:37:24;99135.06;;;16.35;50.44
55442;BME280;41313;58.740;50.174;2022-09-02T07:42:27;99139.50;;;16.44;50.07
55442;BME280;41313;58.740;50.174;2022-09-02T07:47:31;99148.16;;;16.46;49.51
55442;BME280;41313;58.740;50.174;2022-09-02T07:52:33;99140.00;;;16.67;50.64
55442;BME280;41313;58.740;50.174;2022-09-02T07:57:35;99136.66;;;17.02;49.93
55442;BME280;41313;58.740;50.174;2022-09-02T08:02:37;99122.84;;;17.26;49.61
55442;BME280;41313;58.740;50.174;2022-09-02T08:07:39;99126.34;;;17.27;48.96
55442;BME280;41313;58.740;50.174;2022-09-02T08:12:42;99141.22;;;17.38;47.69
55442;BME280;41313;58.740;50.174;2022-09-02T08:17:45;99145.72;;;17.37;47.89
55442;BME280;41313;58.740;50.174;2022-09-02T08:22:46;99141.22;;;17.10;45.90
55442;BME280;41313;58.740;50.174;2022-09-02T08:27:48;99136.78;;;17.11;45.36
55442;BME280;41313;58.740;50.174;2022-09-02T08:32:50;99139.81;;;17.16;45.39
55442;BME280;41313;58.740;50.174;2022-09-02T08:37:51;99142.13;;;17.01;45.60
55442;BME280;41313;58.740;50.174;2022-09-02T08:42:54;99152.47;;;17.22;45.48
55442;BME280;41313;58.740;50.174;2022-09-02T08:48:38;99153.06;;;17.16;45.13
55442;BME280;41313;58.740;50.174;2022-09-02T08:59:05;99149.63;;;17.33;45.98
55442;BME280;41313;58.740;50.174;2022-09-02T09:04:19;99148.00;;;17.68;44.83
55442;BME280;41313;58.740;50.174;2022-09-02T09:15:04;99148.97;;;17.94;46.23
55442;BME280;41313;58.740;50.174;2022-09-02T09:20:19;99160.41;;;17.95;46.65
55442;BME280;41313;58.740;50.174;2022-09-02T09:25:22;99167.19;;;17.89;46.58
55442;BME280;41313;58.740;50.174;2022-09-02T09:30:29;99168.84;;;17.90;46.16
55442;BME280;41313;58.740;50.174;2022-09-02T09:40:49;99167.25;;;18.15;45.01
55442;BME280;41313;58.740;50.174;2022-09-02T09:46:29;99167.59;;;18.38;44.17
55442;BME280;41313;58.740;50.174;2022-09-02T09:51:34;99160.53;;;18.55;45.24
55442;BME280;41313;58.740;50.174;2022-09-02T09:56:35;99171.47;;;18.26;44.20
55442;BME280;41313;58.740;50.174;2022-09-02T10:01:38;99170.34;;;18.11;44.81
55442;BME280;41313;58.740;50.174;2022-09-02T10:06:43;99173.09;;;18.01;44.52
55442;BME280;41313;58.740;50.174;2022-09-02T10:11:57;99169.91;;;18.15;44.61
55442;BME280;41313;58.740;50.174;2022-09-02T10:33:19;99167.56;;;18.12;42.31
55442;BME280;41313;58.740;50.174;2022-09-02T10:38:32;99164.88;;;18.56;41.72
55442;BME280;41313;58.740;50.174;2022-09-02T10:44:18;99165.56;;;18.84;39.77
55442;BME280;41313;58.740;50.174;2022-09-02T10:54:42;99170.75;;;18.86;38.64
55442;BME280;41313;58.740;50.174;2022-09-02T11:04:58;99173.66;;;19.01;38.79
55442;BME280;41313;58.740;50.174;2022-09-02T11:10:15;99177.44;;;19.32;38.21
55442;BME280;41313;58.740;50.174;2022-09-02T11:21:04;99191.38;;;19.26;39.09
55442;BME280;41313;58.740;50.174;2022-09-02T11:26:35;99192.00;;;19.12;39.45
55442;BME280;41313;58.740;50.174;2022-09-02T11:31:48;99184.50;;;19.07;38.67
55442;BME280;41313;58.740;50.174;2022-09-02T11:36:52;99182.84;;;19.15;38.59
55442;BME280;41313;58.740;50.174;2022-09-02T11:42:38;99185.22;;;18.92;38.36
55442;BME280;41313;58.740;50.174;2022-09-02T11:53:49;99196.88;;;18.47;39.71
55442;BME280;41313;58.740;50.174;2022-09-02T11:58:51;99195.88;;;18.65;39.76
55442;BME280;41313;58.740;50.174;2022-09-02T12:03:59;99195.81;;;18.57;40.08
55442;BME280;41313;58.740;50.174;2022-09-02T12:09:04;99199.63;;;18.55;39.67
55442;BME280;41313;58.740;50.174;2022-09-02T12:19:27;99211.16;;;18.63;40.07
55442;BME280;41313;58.740;50.174;2022-09-02T12:24:48;99215.84;;;18.26;41.00
55442;BME280;41313;58.740;50.174;2022-09-02T12:29:50;99222.38;;;18.13;40.31
55442;BME280;41313;58.740;50.174;2022-09-02T12:34:54;99227.88;;;18.12;40.39
55442;BME280;41313;58.740;50.174;2022-09-02T12:40:01;99233.22;;;17.84;41.31
55442;BME280;41313;58.740;50.174;2022-09-02T12:45:14;99237.88;;;17.82;41.58
55442;BME280;41313;58.740;50.174;2022-09-02T12:50:29;99262.97;;;17.60;44.21
55442;BME280;41313;58.740;50.174;2022-09-02T12:55:33;99250.34;;;17.07;42.77
55442;BME280;41313;58.740;50.174;2022-09-02T13:05:55;99271.06;;;16.94;44.53
55442;BME280;41313;58.740;50.174;2022-09-02T13:16:57;99280.00;;;17.02;44.83
55442;BME280;41313;58.740;50.174;2022-09-02T13:27:48;99301.25;;;16.44;46.26
55442;BME280;41313;58.740;50.174;2022-09-02T13:33:04;99311.00;;;16.14;46.34
55442;BME280;41313;58.740;50.174;2022-09-02T13:38:10;99307.22;;;15.98;46.15
55442;BME280;41313;58.740;50.174;2022-09-02T13:48:34;99301.47;;;15.92;47.67
55442;BME280;41313;58.740;50.174;2022-09-02T13:53:43;99301.91;;;15.57;49.70
55442;BME280;41313;58.740;50.174;2022-09-02T13:58:54;99301.31;;;15.44;50.11
55442;BME280;41313;58.740;50.174;2022-09-02T14:03:58;99308.50;;;15.32;51.11
55442;BME280;41313;58.740;50.174;2022-09-02T14:09:02;99324.94;;;15.36;51.57
55442;BME280;41313;58.740;50.174;2022-09-02T14:14:05;99329.59;;;15.22;53.02
55442;BME280;41313;58.740;50.174;2022-09-02T14:24:21;99348.47;;;14.11;55.00
55442;BME280;41313;58.740;50.174;2022-09-02T14:29:24;99344.06;;;13.89;55.50
55442;BME280;41313;58.740;50.174;2022-09-02T14:34:39;99331.34;;;13.72;56.39
55442;BME280;41313;58.740;50.174;2022-09-02T14:40:10;99333.25;;;13.59;57.28
55442;BME280;41313;58.740;50.174;2022-09-02T14:45:12;99337.47;;;13.50;57.95
55442;BME280;41313;58.740;50.174;2022-09-02T14:50:18;99327.28;;;13.34;59.01
55442;BME280;41313;58.740;50.174;2022-09-02T14:55:47;99325.28;;;13.14;59.46
55442;BME280;41313;58.740;50.174;2022-09-02T15:00:52;99331.81;;;13.21;58.52
55442;BME280;41313;58.740;50.174;2022-09-02T15:05:55;99331.56;;;13.24;58.13
55442;BME280;41313;58.740;50.174;2022-09-02T15:10:58;99332.72;;;13.20;58.81
55442;BME280;41313;58.740;50.174;2022-09-02T15:16:01;99338.75;;;13.22;58.73
55442;BME280;41313;58.740;50.174;2022-09-02T15:21:02;99340.66;;;13.20;58.78
55442;BME280;41313;58.740;50.174;2022-09-02T15:26:06;99338.75;;;13.22;58.47
55442;BME280;41313;58.740;50.174;2022-09-02T15:31:08;99344.50;;;13.16;58.77
55442;BME280;41313;58.740;50.174;2022-09-02T15:36:12;99341.81;;;13.05;58.98
55442;BME280;41313;58.740;50.174;2022-09-02T15:41:21;99345.19;;;13.07;58.70
55442;BME280;41313;58.740;50.174;2022-09-02T15:46:29;99352.16;;;13.08;58.56
55442;BME280;41313;58.740;50.174;2022-09-02T15:51:31;99363.16;;;13.02;58.73
55442;BME280;41313;58.740;50.174;2022-09-02T15:56:36;99362.31;;;13.01;58.79
55442;BME280;41313;58.740;50.174;2022-09-02T16:01:40;99358.13;;;12.98;58.39
55442;BME280;41313;58.740;50.174;2022-09-02T16:06:46;99365.16;;;12.87;59.14
55442;BME280;41313;58.740;50.174;2022-09-02T16:11:50;99375.38;;;13.03;58.74
55442;BME280;41313;58.740;50.174;2022-09-02T16:16:53;99373.72;;;13.02;58.83
55442;BME280;41313;58.740;50.174;2022-09-02T16:21:55;99371.06;;;13.02;58.39
55442;BME280;41313;58.740;50.174;2022-09-02T16:26:57;99376.72;;;12.97;58.17
55442;BME280;41313;58.740;50.174;2022-09-02T16:31:58;99381.25;;;12.95;58.25
55442;BME280;41313;58.740;50.174;2022-09-02T16:37:00;99374.88;;;12.86;57.81
55442;BME280;41313;58.740;50.174;2022-09-02T16:42:01;99383.97;;;12.82;57.53
55442;BME280;41313;58.740;50.174;2022-09-02T16:47:04;99374.63;;;12.89;56.64
55442;BME280;41313;58.740;50.174;2022-09-02T16:52:06;99385.06;;;12.91;55.32
55442;BME280;41313;58.740;50.174;2022-09-02T16:57:07;99387.81;;;12.89;55.46
55442;BME280;41313;58.740;50.174;2022-09-02T17:02:08;99381.91;;;12.74;55.32
55442;BME280;41313;58.740;50.174;2022-09-02T17:07:10;99386.81;;;12.55;56.13
55442;BME280;41313;58.740;50.174;2022-09-02T17:12:12;99384.19;;;12.31;55.86
55442;BME280;41313;58.740;50.174;2022-09-02T17:17:13;99383.47;;;12.29;56.23
55442;BME280;41313;58.740;50.174;2022-09-02T17:22:17;99384.41;;;12.28;55.75
55442;BME280;41313;58.740;50.174;2022-09-02T17:27:18;99385.88;;;12.32;56.56
55442;BME280;41313;58.740;50.174;2022-09-02T17:32:20;99378.47;;;12.37;56.13
55442;BME280;41313;58.740;50.174;2022-09-02T17:37:21;99394.06;;;12.40;55.96
55442;BME280;41313;58.740;50.174;2022-09-02T17:42:22;99384.78;;;12.47;55.80
55442;BME280;41313;58.740;50.174;2022-09-02T17:47:24;99388.59;;;12.43;56.12
55442;BME280;41313;58.740;50.174;2022-09-02T17:52:26;99388.78;;;12.40;56.48
55442;BME280;41313;58.740;50.174;2022-09-02T17:57:57;99389.69;;;12.28;56.29
55442;BME280;41313;58.740;50.174;2022-09-02T18:03:29;99394.41;;;12.36;55.99
55442;BME280;41313;58.740;50.174;2022-09-02T18:08:47;99386.59;;;12.34;56.28
55442;BME280;41313;58.740;50.174;2022-09-02T18:19:30;99395.69;;;12.30;56.62
55442;BME280;41313;58.740;50.174;2022-09-02T18:30:17;99386.44;;;12.24;57.33
55442;BME280;41313;58.740;50.174;2022-09-02T18:35:48;99387.28;;;12.25;57.06
55442;BME280;41313;58.740;50.174;2022-09-02T18:46:01;99401.31;;;12.13;57.64
55442;BME280;41313;58.740;50.174;2022-09-02T18:51:06;99392.91;;;12.07;57.91
55442;BME280;41313;58.740;50.174;2022-09-02T18:56:11;99389.56;;;11.80;58.30
55442;BME280;41313;58.740;50.174;2022-09-02T19:01:19;99384.75;;;11.61;59.17
55442;BME280;41313;58.740;50.174;2022-09-02T19:06:25;99400.66;;;11.47;59.49
55442;BME280;41313;58.740;50.174;2022-09-02T19:11:36;99399.69;;;11.35;59.31
55442;BME280;41313;58.740;50.174;2022-09-02T19:16:38;99396.94;;;11.24;60.15
55442;BME280;41313;58.740;50.174;2022-09-02T19:21:46;99401.16;;;11.13;60.56
55442;BME280;41313;58.740;50.174;2022-09-02T19:26:58;99399.06;;;11.44;59.88
55442;BME280;41313;58.740;50.174;2022-09-02T19:32:03;99403.06;;;11.62;59.90
55442;BME280;41313;58.740;50.174;2022-09-02T19:37:05;99405.25;;;11.69;59.83
55442;BME280;41313;58.740;50.174;2022-09-02T19:42:07;99400.53;;;11.86;59.58
55442;BME280;41313;58.740;50.174;2022-09-02T19:47:08;99401.56;;;11.84;60.03
55442;BME280;41313;58.740;50.174;2022-09-02T19:52:10;99404.31;;;11.95;59.70
55442;BME280;41313;58.740;50.174;2022-09-02T19:57:12;99413.03;;;12.08;59.32
55442;BME280;41313;58.740;50.174;2022-09-02T20:02:14;99417.34;;;12.09;59.19
55442;BME280;41313;58.740;50.174;2022-09-02T20:07:15;99408.91;;;12.17;59.48
55442;BME280;41313;58.740;50.174;2022-09-02T20:12:17;99411.16;;;11.98;59.85
55442;BME280;41313;58.740;50.174;2022-09-02T20:17:20;99416.50;;;12.09;60.16
55442;BME280;41313;58.740;50.174;2022-09-02T20:22:22;99417.75;;;12.16;59.73
55442;BME280;41313;58.740;50.174;2022-09-02T20:27:50;99420.59;;;12.13;60.49
55442;BME280;41313;58.740;50.174;2022-09-02T20:32:58;99416.69;;;12.19;60.75
55442;BME280;41313;58.740;50.174;2022-09-02T20:38:32;99409.31;;;12.24;60.87
55442;BME280;41313;58.740;50.174;2022-09-02T20:54:45;99413.75;;;12.23;61.18
55442;BME280;41313;58.740;50.174;2022-09-02T21:00:03;99418.38;;;12.20;61.67
55442;BME280;41313;58.740;50.174;2022-09-02T21:05:27;99410.28;;;12.23;61.43
55442;BME280;41313;58.740;50.174;2022-09-02T21:10:33;99411.81;;;12.25;61.59
55442;BME280;41313;58.740;50.174;2022-09-02T21:20:48;99409.31;;;12.24;62.36
55442;BME280;41313;58.740;50.174;2022-09-02T21:25:54;99410.75;;;12.28;62.52
55442;BME280;41313;58.740;50.174;2022-09-02T21:31:02;99420.47;;;12.27;62.55
55442;BME280;41313;58.740;50.174;2022-09-02T21:36:08;99414.75;;;12.34;62.36
55442;BME280;41313;58.740;50.174;2022-09-02T21:57:26;99419.19;;;12.33;62.67
55442;BME280;41313;58.740;50.174;2022-09-02T22:08:05;99408.78;;;12.31;63.00
55442;BME280;41313;58.740;50.174;2022-09-02T22:13:11;99414.06;;;12.19;62.94
55442;BME280;41313;58.740;50.174;2022-09-02T22:18:27;99423.00;;;12.29;62.93
55442;BME280;41313;58.740;50.174;2022-09-02T22:23:31;99411.19;;;12.22;62.75
55442;BME280;41313;58.740;50.174;2022-09-02T22:28:43;99421.75;;;12.22;63.08
55442;BME280;41313;58.740;50.174;2022-09-02T22:33:50;99429.72;;;12.33;62.38
55442;BME280;41313;58.740;50.174;2022-09-02T22:38:56;99431.34;;;12.23;63.12
55442;BME280;41313;58.740;50.174;2022-09-02T22:44:21;99438.50;;;12.21;62.83
55442;BME280;41313;58.740;50.174;2022-09-02T22:49:30;99444.72;;;12.20;63.08
55442;BME280;41313;58.740;50.174;2022-09-02T22:54:51;99448.38;;;12.30;62.95
55442;BME280;41313;58.740;50.174;2022-09-02T23:00:09;99457.97;;;12.31;62.70
55442;BME280;41313;58.740;50.174;2022-09-02T23:11:33;99463.81;;;12.47;61.88
55442;BME280;41313;58.740;50.174;2022-09-02T23:27:32;99479.41;;;12.50;61.42
55442;BME280;41313;58.740;50.174;2022-09-02T23:32:43;99489.53;;;12.57;61.37
55442;BME280;41313;58.740;50.174;2022-09-02T23:43:15;99491.78;;;12.37;62.22
